createdAt,value
2023-01-13T00:01:18.126Z,72.87
2023-01-13T00:03:45.581Z,73.06
2023-01-13T00:06:15.715Z,72.57
2023-01-13T00:08:43.318Z,72.61
2023-01-13T00:11:11.211Z,72.30
2023-01-13T00:13:39.079Z,72.43
2023-01-13T00:16:12.190Z,72.39
2023-01-13T00:18:39.945Z,72.14
2023-01-13T00:21:14.932Z,72.12
2023-01-13T00:23:42.971Z,72.14
2023-01-13T00:26:12.782Z,72.21
2023-01-13T00:28:40.254Z,71.98
2023-01-13T00:31:15.579Z,71.94
2023-01-13T00:33:43.143Z,71.92
2023-01-13T00:36:13.620Z,71.72
2023-01-13T00:38:43.007Z,71.63
2023-01-13T00:41:29.210Z,71.25
2023-01-13T00:43:56.407Z,70.79
2023-01-13T00:46:24.030Z,70.98
2023-01-13T00:48:51.729Z,70.77
2023-01-13T00:51:20.749Z,70.78
2023-01-13T00:53:51.850Z,70.70
2023-01-13T00:56:34.055Z,70.74
2023-01-13T00:59:06.150Z,70.69
2023-01-13T01:01:33.576Z,70.73
2023-01-13T01:04:01.066Z,70.67
2023-01-13T01:06:28.667Z,71.04
2023-01-13T01:08:56.642Z,71.60
2023-01-13T01:11:29.118Z,71.65
2023-01-13T01:13:58.163Z,72.53
2023-01-13T01:16:27.469Z,72.64
2023-01-13T01:18:55.395Z,73.17
2023-01-13T01:21:24.252Z,73.33
2023-01-13T01:23:51.574Z,73.58
2023-01-13T01:26:23.736Z,73.70
2023-01-13T01:28:51.484Z,73.89
2023-01-13T01:31:21.527Z,74.18
2023-01-13T01:33:49.571Z,74.05
2023-01-13T01:36:19.293Z,73.47
2023-01-13T01:38:47.511Z,73.71
2023-01-13T01:41:17.484Z,73.85
2023-01-13T01:43:59.891Z,73.48
2023-01-13T01:46:38.596Z,73.50
2023-01-13T01:49:11.231Z,72.98
2023-01-13T01:52:10.987Z,72.85
2023-01-13T01:54:48.753Z,72.68
2023-01-13T01:57:20.224Z,72.76
2023-01-13T01:59:47.496Z,72.70
2023-01-13T02:02:14.949Z,72.45
2023-01-13T02:04:51.177Z,72.51
2023-01-13T02:07:21.212Z,72.60
2023-01-13T02:09:49.063Z,72.33
2023-01-13T02:12:35.071Z,72.58
2023-01-13T02:15:06.326Z,72.93
2023-01-13T02:18:12.547Z,72.69
2023-01-13T02:20:58.558Z,72.29
2023-01-13T02:24:22.382Z,72.65
2023-01-13T02:27:13.496Z,72.63
2023-01-13T02:30:19.339Z,72.61
2023-01-13T02:33:04.144Z,72.67
2023-01-13T02:35:57.922Z,72.90
2023-01-13T02:38:40.686Z,72.81
2023-01-13T02:41:33.359Z,72.75
2023-01-13T02:44:09.219Z,72.69
2023-01-13T02:47:19.756Z,72.45
2023-01-13T02:49:50.919Z,72.45
2023-01-13T02:52:26.286Z,72.75
2023-01-13T02:54:55.925Z,72.69
2023-01-13T02:57:24.216Z,72.66
2023-01-13T02:59:54.318Z,72.85
2023-01-13T03:02:22.558Z,72.61
2023-01-13T03:04:58.051Z,72.63
2023-01-13T03:07:53.282Z,72.67
2023-01-13T03:10:32.862Z,72.96
2023-01-13T03:13:07.183Z,73.38
2023-01-13T03:15:46.605Z,72.95
2023-01-13T03:18:28.862Z,73.05
2023-01-13T03:21:15.783Z,73.31
2023-01-13T03:23:52.030Z,73.24
2023-01-13T03:26:30.743Z,73.23
2023-01-13T03:29:29.735Z,73.10
2023-01-13T03:31:59.927Z,73.29
2023-01-13T03:34:34.454Z,73.25
2023-01-13T03:37:04.100Z,73.41
2023-01-13T03:39:37.849Z,73.09
2023-01-13T03:42:11.934Z,73.26
2023-01-13T03:44:44.975Z,73.71
2023-01-13T03:47:15.182Z,73.42
2023-01-13T03:50:05.356Z,73.31
2023-01-13T03:52:38.298Z,73.10
2023-01-13T03:55:13.228Z,73.15
2023-01-13T03:57:56.917Z,73.06
2023-01-13T04:00:28.036Z,72.96
2023-01-13T04:03:00.047Z,73.03
2023-01-13T04:05:27.671Z,73.14
2023-01-13T04:08:01.873Z,73.17
2023-01-13T04:10:34.787Z,73.00
2023-01-13T04:13:05.202Z,73.08
2023-01-13T04:15:37.987Z,72.90
2023-01-13T04:18:31.546Z,73.01
2023-01-13T04:21:00.725Z,72.87
2023-01-13T04:23:28.668Z,72.89
2023-01-13T04:25:56.360Z,72.98
2023-01-13T04:28:23.539Z,73.02
2023-01-13T04:30:51.001Z,72.83
2023-01-13T04:33:19.213Z,72.83
2023-01-13T04:35:47.005Z,72.71
2023-01-13T04:38:15.789Z,72.90
2023-01-13T04:40:42.929Z,72.56
2023-01-13T04:43:11.249Z,72.64
2023-01-13T04:45:38.400Z,72.70
2023-01-13T04:48:05.590Z,72.71
2023-01-13T04:50:32.938Z,72.68
2023-01-13T04:53:01.249Z,72.49
2023-01-13T04:55:28.366Z,72.54
2023-01-13T04:57:55.502Z,72.55
2023-01-13T05:00:24.140Z,72.77
2023-01-13T05:02:51.448Z,72.69
2023-01-13T05:05:18.583Z,72.75
2023-01-13T05:07:45.928Z,72.64
2023-01-13T05:10:13.374Z,72.72
2023-01-13T05:12:59.603Z,72.92
2023-01-13T05:15:45.861Z,72.96
2023-01-13T05:18:13.201Z,72.99
2023-01-13T05:20:40.223Z,72.99
2023-01-13T05:23:25.741Z,73.35
2023-01-13T05:25:52.940Z,73.31
2023-01-13T05:28:20.055Z,73.30
2023-01-13T05:30:49.296Z,73.15
2023-01-13T05:33:18.610Z,73.40
2023-01-13T05:35:46.745Z,73.05
2023-01-13T05:38:14.551Z,72.91
2023-01-13T05:41:00.741Z,72.77
2023-01-13T05:43:28.250Z,72.78
2023-01-13T05:45:58.213Z,72.61
2023-01-13T05:48:31.531Z,72.71
2023-01-13T05:50:59.034Z,72.63
2023-01-13T05:53:26.066Z,72.59
2023-01-13T05:55:53.413Z,72.49
2023-01-13T05:58:22.167Z,72.40
2023-01-13T06:00:49.814Z,72.54
2023-01-13T06:03:19.739Z,72.60
2023-01-13T06:05:47.873Z,72.39
2023-01-13T06:08:14.952Z,72.33
2023-01-13T06:10:41.992Z,72.28
2023-01-13T06:13:09.124Z,72.52
2023-01-13T06:15:36.413Z,72.29
2023-01-13T06:18:04.789Z,72.42
2023-01-13T06:20:32.309Z,72.25
2023-01-13T06:23:00.167Z,72.55
2023-01-13T06:25:56.732Z,72.48
2023-01-13T06:28:24.103Z,72.29
2023-01-13T06:30:56.498Z,72.35
2023-01-13T06:33:28.287Z,72.26
2023-01-13T06:35:59.009Z,72.03
2023-01-13T06:38:27.837Z,71.95
2023-01-13T06:40:54.879Z,72.18
2023-01-13T06:43:22.124Z,72.23
2023-01-13T06:45:52.845Z,72.02
2023-01-13T06:48:22.098Z,71.95
2023-01-13T06:50:49.303Z,72.29
2023-01-13T06:53:16.344Z,72.03
2023-01-13T06:55:43.409Z,72.36
2023-01-13T06:58:10.709Z,71.94
2023-01-13T07:00:38.122Z,72.08
2023-01-13T07:03:07.152Z,71.73
2023-01-13T07:05:34.391Z,71.74
2023-01-13T07:08:01.655Z,71.79
2023-01-13T07:10:29.239Z,71.73
2023-01-13T07:13:14.920Z,71.45
2023-01-13T07:15:42.086Z,71.78
2023-01-13T07:18:09.171Z,71.73
2023-01-13T07:20:36.219Z,71.44
2023-01-13T07:23:03.498Z,71.41
2023-01-13T07:25:32.437Z,71.57
2023-01-13T07:27:59.617Z,71.56
2023-01-13T07:30:26.724Z,71.65
2023-01-13T07:32:53.924Z,71.63
2023-01-13T07:35:23.801Z,71.56
2023-01-13T07:37:50.974Z,71.60
2023-01-13T07:40:18.205Z,71.65
2023-01-13T07:43:04.243Z,71.50
2023-01-13T07:45:31.354Z,71.79
2023-01-13T07:47:58.640Z,71.66
2023-01-13T07:50:25.987Z,71.79
2023-01-13T07:52:53.183Z,71.78
2023-01-13T07:55:20.259Z,71.98
2023-01-13T07:57:48.251Z,72.02
2023-01-13T08:00:15.889Z,71.99
2023-01-13T08:02:42.945Z,72.05
2023-01-13T08:05:10.027Z,71.78
2023-01-13T08:07:37.241Z,71.86
2023-01-13T08:10:04.618Z,71.56
2023-01-13T08:12:53.302Z,71.54
2023-01-13T08:15:24.208Z,71.75
2023-01-13T08:17:51.292Z,71.71
2023-01-13T08:20:19.166Z,71.66
2023-01-13T08:22:46.221Z,71.49
2023-01-13T08:25:13.285Z,71.72
2023-01-13T08:27:40.520Z,72.29
2023-01-13T08:30:08.288Z,71.96
2023-01-13T08:32:35.545Z,72.09
2023-01-13T08:35:02.580Z,72.13
2023-01-13T08:37:29.649Z,72.10
2023-01-13T08:39:56.831Z,71.59
2023-01-13T08:42:24.528Z,71.60
2023-01-13T08:44:52.884Z,71.81
2023-01-13T08:47:20.103Z,72.24
2023-01-13T08:49:47.157Z,73.01
2023-01-13T08:52:14.952Z,74.61
2023-01-13T08:54:42.141Z,75.37
2023-01-13T08:57:09.340Z,76.86
2023-01-13T08:59:36.547Z,77.72
2023-01-13T09:02:04.369Z,78.21
2023-01-13T09:04:31.557Z,78.44
2023-01-13T09:06:58.747Z,79.48
2023-01-13T09:09:27.676Z,79.17
2023-01-13T09:12:13.489Z,80.20
2023-01-13T09:14:40.970Z,80.71
2023-01-13T09:17:08.086Z,80.65
2023-01-13T09:19:35.246Z,80.95
2023-01-13T09:22:02.753Z,81.21
2023-01-13T09:24:30.015Z,82.12
2023-01-13T09:26:57.554Z,81.66
2023-01-13T09:29:24.732Z,82.55
2023-01-13T09:31:51.893Z,81.84
2023-01-13T09:34:38.580Z,82.13
2023-01-13T09:37:06.920Z,83.14
2023-01-13T09:39:35.284Z,83.03
2023-01-13T09:43:01.981Z,82.54
2023-01-13T09:45:32.579Z,83.50
2023-01-13T09:48:08.303Z,83.62
2023-01-13T09:50:41.405Z,82.99
2023-01-13T09:53:13.748Z,84.15
2023-01-13T09:55:40.808Z,83.58
2023-01-13T09:58:13.901Z,84.12
2023-01-13T10:01:02.493Z,83.61
2023-01-13T10:03:31.545Z,83.40
2023-01-13T10:06:06.758Z,83.42
2023-01-13T10:08:37.801Z,82.67
2023-01-13T10:11:41.238Z,81.96
2023-01-13T10:14:24.877Z,83.30
2023-01-13T10:17:06.451Z,83.18
2023-01-13T10:19:44.505Z,83.75
2023-01-13T10:22:36.820Z,83.49
2023-01-13T10:25:14.746Z,83.18
2023-01-13T10:27:43.099Z,83.45
2023-01-13T10:30:19.674Z,83.14
2023-01-13T10:32:54.105Z,83.77
2023-01-13T10:35:53.809Z,84.12
2023-01-13T10:38:26.996Z,83.68
2023-01-13T10:40:57.004Z,83.10
2023-01-13T10:43:25.125Z,83.23
2023-01-13T10:45:59.097Z,83.86
2023-01-13T10:48:37.666Z,83.70
2023-01-13T10:51:24.021Z,83.69
2023-01-13T10:53:56.835Z,83.56
2023-01-13T10:56:27.382Z,82.84
2023-01-13T10:59:10.023Z,82.13
2023-01-13T11:01:37.642Z,82.13
2023-01-13T11:04:24.733Z,80.84
2023-01-13T11:06:51.956Z,80.62
2023-01-13T11:09:21.167Z,80.72
2023-01-13T11:11:55.263Z,80.15
2023-01-13T11:14:36.764Z,79.63
2023-01-13T11:17:09.808Z,80.26
2023-01-13T11:19:42.337Z,78.96
2023-01-13T11:22:17.358Z,78.21
2023-01-13T11:24:57.210Z,78.68
2023-01-13T11:27:43.827Z,79.33
2023-01-13T11:30:19.865Z,78.95
2023-01-13T11:33:14.873Z,78.49
2023-01-13T11:36:12.352Z,79.20
2023-01-13T11:38:45.954Z,78.93
2023-01-13T11:41:35.859Z,78.89
2023-01-13T11:44:16.242Z,77.53
2023-01-13T11:46:43.473Z,78.12
2023-01-13T11:49:22.280Z,77.15
2023-01-13T11:52:04.864Z,78.11
2023-01-13T11:54:53.496Z,77.75
2023-01-13T11:57:53.351Z,77.88
2023-01-13T12:00:48.542Z,77.41
2023-01-13T12:03:31.409Z,76.91
2023-01-13T12:06:28.456Z,77.00
2023-01-13T12:08:58.478Z,76.87
2023-01-13T12:12:09.642Z,77.04
2023-01-13T12:14:39.624Z,76.11
2023-01-13T12:17:15.821Z,76.37
2023-01-13T12:19:44.878Z,76.86
2023-01-13T12:22:26.763Z,76.43
2023-01-13T12:25:13.903Z,76.64
2023-01-13T12:27:47.223Z,76.08
2023-01-13T12:30:23.969Z,75.16
2023-01-13T12:32:53.652Z,75.12
2023-01-13T12:35:40.007Z,74.04
2023-01-13T12:38:29.343Z,74.14
2023-01-13T12:41:06.997Z,74.54
2023-01-13T12:43:52.974Z,73.54
2023-01-13T12:46:22.651Z,74.01
2023-01-13T12:48:56.892Z,73.11
2023-01-13T12:51:36.646Z,72.83
2023-01-13T12:54:42.375Z,73.33
2023-01-13T12:57:24.794Z,72.78
2023-01-13T13:00:00.768Z,71.81
2023-01-13T13:02:30.102Z,72.48
2023-01-13T13:04:59.891Z,72.79
2023-01-13T13:07:29.910Z,72.92
2023-01-13T13:10:03.358Z,70.58
2023-01-13T13:12:49.133Z,71.89
2023-01-13T13:15:20.827Z,72.01
2023-01-13T13:17:59.896Z,72.04
2023-01-13T13:21:09.099Z,71.13
2023-01-13T13:23:57.871Z,71.76
2023-01-13T13:26:45.726Z,72.38
2023-01-13T13:29:28.709Z,72.41
2023-01-13T13:32:18.495Z,72.44
2023-01-13T13:35:00.853Z,71.57
2023-01-13T13:37:55.687Z,72.25
2023-01-13T13:40:43.028Z,71.92
2023-01-13T13:43:31.873Z,71.61
2023-01-13T13:46:17.584Z,71.99
2023-01-13T13:48:54.631Z,71.67
2023-01-13T13:51:28.274Z,71.90
2023-01-13T13:53:55.916Z,71.20
2023-01-13T13:56:27.476Z,71.52
2023-01-13T13:58:55.247Z,71.94
2023-01-13T14:01:25.394Z,71.82
2023-01-13T14:04:25.670Z,71.06
2023-01-13T14:07:06.572Z,71.02
2023-01-13T14:09:46.447Z,71.60
2023-01-13T14:12:27.156Z,70.51
2023-01-13T14:14:57.543Z,70.13
2023-01-13T14:17:27.089Z,70.18
2023-01-13T14:20:02.389Z,70.01
2023-01-13T14:22:29.462Z,70.49
2023-01-13T14:24:57.955Z,70.23
2023-01-13T14:27:27.733Z,70.14
2023-01-13T14:30:00.485Z,70.67
2023-01-13T14:32:36.392Z,69.27
2023-01-13T14:35:07.578Z,68.92
2023-01-13T14:37:40.251Z,69.23
2023-01-13T14:40:33.090Z,69.33
2023-01-13T14:43:00.725Z,69.22
2023-01-13T14:45:27.823Z,68.67
2023-01-13T14:47:54.862Z,68.27
2023-01-13T14:50:28.166Z,69.07
2023-01-13T14:52:57.039Z,68.74
2023-01-13T14:55:31.827Z,68.17
2023-01-13T14:58:23.658Z,67.98
2023-01-13T15:00:52.487Z,67.64
2023-01-13T15:03:21.231Z,68.44
2023-01-13T15:05:50.622Z,69.18
2023-01-13T15:08:34.853Z,69.43
2023-01-13T15:11:04.198Z,69.28
2023-01-13T15:13:52.938Z,69.06
2023-01-13T15:16:25.604Z,69.15
2023-01-13T15:18:54.520Z,69.27
2023-01-13T15:21:23.013Z,69.03
2023-01-13T15:23:50.169Z,69.29
2023-01-13T15:26:21.569Z,69.38
2023-01-13T15:28:49.120Z,69.50
2023-01-13T15:31:16.525Z,69.23
2023-01-13T15:33:43.783Z,69.39
2023-01-13T15:36:31.161Z,69.43
2023-01-13T15:38:58.933Z,69.31
2023-01-13T15:41:44.611Z,68.90
2023-01-13T15:44:51.156Z,69.43
2023-01-13T15:47:18.354Z,68.05
2023-01-13T15:49:46.119Z,68.40
2023-01-13T15:52:24.245Z,68.31
2023-01-13T15:54:51.935Z,68.52
2023-01-13T15:57:23.485Z,68.61
2023-01-13T15:59:52.193Z,68.60
2023-01-13T16:02:19.398Z,69.07
2023-01-13T16:04:46.447Z,69.33
2023-01-13T16:07:18.126Z,69.69
2023-01-13T16:09:45.452Z,68.79
2023-01-13T16:12:13.387Z,68.48
2023-01-13T16:14:40.442Z,68.47
2023-01-13T16:17:16.233Z,68.27
2023-01-13T16:19:44.295Z,68.03
2023-01-13T16:22:14.169Z,67.20
2023-01-13T16:24:42.001Z,67.82
2023-01-13T16:27:23.578Z,67.55
2023-01-13T16:29:51.976Z,68.00
2023-01-13T16:32:20.929Z,68.22
2023-01-13T16:34:48.516Z,68.39
2023-01-13T16:37:25.368Z,68.44
2023-01-13T16:39:53.990Z,68.74
2023-01-13T16:42:21.530Z,69.71
2023-01-13T16:44:49.628Z,69.31
2023-01-13T16:47:17.755Z,68.96
2023-01-13T16:49:45.572Z,69.19
2023-01-13T16:52:12.622Z,69.79
2023-01-13T16:54:39.792Z,69.87
2023-01-13T16:57:07.760Z,69.64
2023-01-13T16:59:36.228Z,69.63
2023-01-13T17:02:04.730Z,69.90
2023-01-13T17:04:33.195Z,70.22
2023-01-13T17:07:06.484Z,70.34
2023-01-13T17:09:33.892Z,70.12
2023-01-13T17:12:00.937Z,69.81
2023-01-13T17:14:28.028Z,69.93
2023-01-13T17:16:57.156Z,70.13
2023-01-13T17:19:24.600Z,70.20
2023-01-13T17:21:51.606Z,69.95
2023-01-13T17:24:18.663Z,69.62
2023-01-13T17:26:50.795Z,70.13
2023-01-13T17:29:22.078Z,70.24
2023-01-13T17:31:50.199Z,70.00
2023-01-13T17:34:17.805Z,70.26
2023-01-13T17:36:45.014Z,70.14
2023-01-13T17:39:16.712Z,70.24
2023-01-13T17:41:44.402Z,70.05
2023-01-13T17:44:15.472Z,70.25
2023-01-13T17:46:43.320Z,70.62
2023-01-13T17:49:11.762Z,70.17
2023-01-13T17:51:38.915Z,70.07
2023-01-13T17:54:06.063Z,69.75
2023-01-13T17:56:33.208Z,69.17
2023-01-13T17:59:00.240Z,69.25
2023-01-13T18:01:30.796Z,69.35
2023-01-13T18:03:57.981Z,68.80
2023-01-13T18:06:25.379Z,68.67
2023-01-13T18:08:52.946Z,68.56
2023-01-13T18:11:21.750Z,68.72
2023-01-13T18:13:50.303Z,68.65
2023-01-13T18:16:19.347Z,68.56
2023-01-13T18:18:48.469Z,68.53
2023-01-13T18:21:43.379Z,68.60
2023-01-13T18:24:34.400Z,68.96
2023-01-13T18:27:22.542Z,68.70
2023-01-13T18:29:54.538Z,68.85
2023-01-13T18:32:23.452Z,69.26
2023-01-13T18:35:01.597Z,69.34
2023-01-13T18:37:35.852Z,69.30
2023-01-13T18:40:04.810Z,69.52
2023-01-13T18:42:50.413Z,69.22
2023-01-13T18:45:29.288Z,69.79
2023-01-13T18:47:59.174Z,69.86
2023-01-13T18:50:28.255Z,69.52
2023-01-13T18:52:55.640Z,70.09
2023-01-13T18:55:23.417Z,69.75
2023-01-13T18:57:51.159Z,70.21
2023-01-13T19:00:20.337Z,69.92
2023-01-13T19:02:48.143Z,70.12
2023-01-13T19:05:15.224Z,70.87
2023-01-13T19:07:46.233Z,70.46
2023-01-13T19:10:13.365Z,70.42
2023-01-13T19:12:40.438Z,70.34
2023-01-13T19:15:08.084Z,70.28
2023-01-13T19:17:35.783Z,70.77
2023-01-13T19:20:04.886Z,70.47
2023-01-13T19:22:35.554Z,71.00
2023-01-13T19:25:03.540Z,71.16
2023-01-13T19:27:31.533Z,71.16
2023-01-13T19:30:00.439Z,71.33
2023-01-13T19:32:27.964Z,71.63
2023-01-13T19:34:59.046Z,71.59
2023-01-13T19:37:31.413Z,71.36
2023-01-13T19:39:59.316Z,71.24
2023-01-13T19:42:45.433Z,71.87
2023-01-13T19:45:29.174Z,71.83
2023-01-13T19:47:57.594Z,72.16
2023-01-13T19:50:24.726Z,73.08
2023-01-13T19:52:51.790Z,73.02
2023-01-13T19:55:19.726Z,72.85
2023-01-13T19:57:47.075Z,73.18
2023-01-13T20:00:18.355Z,73.13
2023-01-13T20:02:49.130Z,73.33
2023-01-13T20:05:21.133Z,73.14
2023-01-13T20:07:50.198Z,72.79
2023-01-13T20:10:18.697Z,73.57
2023-01-13T20:12:45.779Z,72.90
2023-01-13T20:15:12.876Z,73.37
2023-01-13T20:17:41.328Z,72.79
2023-01-13T20:20:11.687Z,73.34
2023-01-13T20:22:42.090Z,72.91
2023-01-13T20:25:09.368Z,72.75
2023-01-13T20:27:36.813Z,72.75
2023-01-13T20:30:05.307Z,72.91
2023-01-13T20:32:32.349Z,73.41
2023-01-13T20:34:59.488Z,73.49
2023-01-13T20:37:26.687Z,73.93
2023-01-13T20:39:55.195Z,73.73
2023-01-13T20:42:41.171Z,73.49
2023-01-13T20:45:08.727Z,73.51
2023-01-13T20:47:35.776Z,73.87
2023-01-13T20:50:02.897Z,73.92
2023-01-13T20:52:29.999Z,73.82
2023-01-13T20:54:57.194Z,72.88
2023-01-13T20:57:24.239Z,73.45
2023-01-13T20:59:51.314Z,73.17
2023-01-13T21:02:19.325Z,73.01
2023-01-13T21:04:46.414Z,73.88
2023-01-13T21:07:13.611Z,73.33
2023-01-13T21:09:40.639Z,73.07
2023-01-13T21:12:26.419Z,73.08
2023-01-13T21:15:12.098Z,73.24
2023-01-13T21:17:57.655Z,73.12
2023-01-13T21:20:24.701Z,73.27
2023-01-13T21:22:51.861Z,72.68
2023-01-13T21:25:19.031Z,72.82
2023-01-13T21:27:46.165Z,73.49
2023-01-13T21:30:15.356Z,72.72
2023-01-13T21:32:44.471Z,72.57
2023-01-13T21:35:12.623Z,72.96
2023-01-13T21:37:41.275Z,72.63
2023-01-13T21:40:12.226Z,72.34
2023-01-13T21:42:57.950Z,73.05
2023-01-13T21:45:43.707Z,72.39
2023-01-13T21:48:10.794Z,72.94
2023-01-13T21:50:38.467Z,73.03
2023-01-13T21:53:07.804Z,73.85
2023-01-13T21:55:36.668Z,74.05
2023-01-13T21:58:12.217Z,74.45
2023-01-13T22:00:40.782Z,75.63
2023-01-13T22:03:08.942Z,76.88
2023-01-13T22:05:36.394Z,77.69
2023-01-13T22:08:04.134Z,77.41
2023-01-13T22:10:31.591Z,77.95
2023-01-13T22:13:20.552Z,78.42
2023-01-13T22:15:47.896Z,78.16
2023-01-13T22:18:15.255Z,77.69
2023-01-13T22:20:42.347Z,77.47
2023-01-13T22:23:09.376Z,77.93
2023-01-13T22:25:36.381Z,78.01
2023-01-13T22:28:05.953Z,77.43
2023-01-13T22:30:33.265Z,77.59
2023-01-13T22:33:00.593Z,77.37
2023-01-13T22:35:27.671Z,77.23
2023-01-13T22:37:54.732Z,77.14
2023-01-13T22:40:21.752Z,76.68
2023-01-13T22:42:48.934Z,77.28
2023-01-13T22:45:16.188Z,76.77
2023-01-13T22:47:43.206Z,76.58
2023-01-13T22:50:12.475Z,76.54
2023-01-13T22:52:39.870Z,75.46
2023-01-13T22:55:07.388Z,76.34
2023-01-13T22:57:46.763Z,75.77
2023-01-13T23:00:15.496Z,75.99
2023-01-13T23:02:42.570Z,75.79
2023-01-13T23:05:09.809Z,75.45
2023-01-13T23:07:36.835Z,74.97
2023-01-13T23:10:04.485Z,74.89
2023-01-13T23:12:31.566Z,74.97
2023-01-13T23:14:58.617Z,74.55
2023-01-13T23:17:25.781Z,74.95
2023-01-13T23:19:52.816Z,75.15
2023-01-13T23:22:19.904Z,74.04
2023-01-13T23:24:46.960Z,74.48
2023-01-13T23:27:14.039Z,74.39
2023-01-13T23:29:41.115Z,74.59
2023-01-13T23:32:08.215Z,74.08
2023-01-13T23:34:35.248Z,73.47
2023-01-13T23:37:06.204Z,73.43
2023-01-13T23:39:33.239Z,72.75
2023-01-13T23:42:00.320Z,72.95
2023-01-13T23:44:27.372Z,73.82
2023-01-13T23:46:54.459Z,73.14
2023-01-13T23:49:21.525Z,73.39
2023-01-13T23:51:52.289Z,73.52
2023-01-13T23:54:19.964Z,72.71
2023-01-13T23:56:49.300Z,73.12
2023-01-13T23:59:16.329Z,73.53
